Time;durP1;ratioP1;P1;durP2;ratioP2;P2;SDS_P1;SDS_P2;PMS_P1;PMS_P2;Temp;Humidity;BMP_temperature;BMP_pressure;BME280_temperature;BME280_humidity;BME280_pressure;Samples;Min_cycle;Max_cycle;Signal;HPM_P1;HPM_P2
2022/05/18 00:00:40;;;;;;;4.83;1.57;;;;;;;9.03;41.54;101609.87;1769798;81;21053;-71
2022/05/18 00:03:10;;;;;;;2.67;1.27;;;;;;;8.98;41.67;101610.25;1770069;81;21322;-70
2022/05/18 00:05:39;;;;;;;3.12;1.55;;;;;;;8.95;41.76;101613.66;1792355;80;20986;-70
2022/05/18 00:08:05;;;;;;;3.92;1.47;;;;;;;8.93;41.91;101607.64;1764681;81;21006;-70
2022/05/18 00:10:32;;;;;;;2.65;1.45;;;;;;;8.89;41.97;101616.37;1792548;80;21079;-70
2022/05/18 00:12:58;;;;;;;3.05;1.40;;;;;;;8.84;42.11;101612.39;1761392;81;20993;-70
2022/05/18 00:15:25;;;;;;;4.28;1.70;;;;;;;8.82;42.21;101618.34;1799569;78;21011;-71
2022/05/18 00:17:52;;;;;;;2.12;1.30;;;;;;;8.77;42.34;101617.86;1822853;78;21054;-71
2022/05/18 00:20:18;;;;;;;8.00;1.70;;;;;;;8.75;42.45;101621.16;1825016;78;20995;-71
2022/05/18 00:22:52;;;;;;;3.83;1.92;;;;;;;8.72;42.53;101625.41;1824796;78;21002;-70
2022/05/18 00:25:20;;;;;;;4.58;1.30;;;;;;;8.65;42.66;101628.21;1818772;78;21025;-70
2022/05/18 00:27:46;;;;;;;4.40;1.50;;;;;;;8.58;42.78;101625.22;1825074;78;21872;-70
2022/05/18 00:30:14;;;;;;;3.83;1.65;;;;;;;8.52;42.88;101620.39;1825091;78;20951;-70
2022/05/18 00:32:40;;;;;;;4.10;1.30;;;;;;;8.45;43.01;101625.38;1824897;78;20980;-71
2022/05/18 00:35:07;;;;;;;3.58;1.62;;;;;;;8.39;43.13;101634.34;1825161;78;20919;-70
2022/05/18 00:37:33;;;;;;;3.80;1.42;;;;;;;8.32;43.25;101628.69;1821437;78;20987;-70
2022/05/18 00:39:59;;;;;;;3.15;1.40;;;;;;;8.27;43.37;101634.81;1825033;78;21266;-71
2022/05/18 00:42:27;;;;;;;2.60;1.42;;;;;;;8.21;43.48;101637.98;1825095;78;20963;-70
2022/05/18 00:44:53;;;;;;;4.53;1.60;;;;;;;8.15;43.59;101643.80;1823187;78;21460;-70
2022/05/18 00:47:20;;;;;;;5.42;1.95;;;;;;;8.09;43.74;101645.62;1825072;78;20844;-70
2022/05/18 00:49:51;;;;;;;7.15;1.65;;;;;;;8.02;43.86;101645.25;1824991;78;20991;-70
2022/05/18 00:52:17;;;;;;;3.83;1.62;;;;;;;7.96;44.00;101651.54;1789843;80;21142;-70
2022/05/18 00:54:43;;;;;;;3.58;1.50;;;;;;;7.91;44.12;101651.08;1763881;80;21449;-70
2022/05/18 00:57:16;;;;;;;4.65;1.42;;;;;;;7.87;44.27;101655.79;1825187;78;20899;-70
2022/05/18 00:59:59;;;;;;;2.30;1.42;;;;;;;7.81;44.39;101660.75;1818029;78;20998;-70
2022/05/18 01:02:27;;;;;;;2.87;1.42;;;;;;;7.78;44.52;101667.60;1774807;80;20993;-70
2022/05/18 01:04:55;;;;;;;18.27;3.65;;;;;;;7.71;44.65;101671.22;1760692;81;21226;-70
2022/05/18 01:07:29;;;;;;;5.00;1.50;;;;;;;7.66;44.79;101668.58;1764036;81;21058;-70
2022/05/18 01:09:55;;;;;;;6.55;1.37;;;;;;;7.61;44.92;101674.72;1771892;81;21045;-70
2022/05/18 01:12:21;;;;;;;3.75;1.40;;;;;;;7.56;45.07;101680.88;1765811;80;21046;-70
2022/05/18 01:14:54;;;;;;;3.72;1.95;;;;;;;7.49;45.19;101680.01;1773386;80;21498;-70
2022/05/18 01:17:23;;;;;;;6.70;1.98;;;;;;;7.45;45.34;101681.23;1745090;80;21270;-71
2022/05/18 01:19:58;;;;;;;6.75;1.77;;;;;;;7.40;45.50;101682.06;1742775;81;21054;-70
2022/05/18 01:22:44;;;;;;;4.83;1.60;;;;;;;7.35;45.63;101684.72;1771472;81;20992;-70
2022/05/18 01:25:52;;;;;;;6.58;1.75;;;;;;;7.31;45.79;101683.25;1773352;80;21050;-70
2022/05/18 01:28:18;;;;;;;2.37;1.40;;;;;;;7.26;45.96;101680.95;1772975;80;21042;-70
2022/05/18 01:30:47;;;;;;;7.15;1.42;;;;;;;7.18;46.12;101693.94;1744226;81;21258;-70
2022/05/18 01:33:14;;;;;;;3.27;1.70;;;;;;;7.13;46.27;101688.16;1742819;82;21028;-70
2022/05/18 01:35:42;;;;;;;4.30;1.50;;;;;;;7.10;46.38;101697.67;1742787;81;21061;-70
2022/05/18 01:38:12;;;;;;;5.10;1.67;;;;;;;7.07;46.51;101697.91;1742868;81;21510;-70
2022/05/18 01:41:05;;;;;;;1.98;1.35;;;;;;;7.05;46.68;101701.14;1742041;81;21066;-70
2022/05/18 01:43:47;;;;;;;4.15;1.75;;;;;;;7.01;46.80;101702.33;1742669;81;21062;-70
2022/05/18 01:46:15;;;;;;;3.30;1.42;;;;;;;6.96;46.96;101712.45;1742557;82;21054;-70
2022/05/18 01:48:45;;;;;;;4.25;1.90;;;;;;;6.90;47.08;101710.23;1750506;80;21085;-70
2022/05/18 01:51:13;;;;;;;3.60;1.52;;;;;;;6.84;47.18;101710.22;1741261;81;21014;-70
2022/05/18 01:53:39;;;;;;;2.25;1.47;;;;;;;6.80;47.32;101714.53;1742598;81;20995;-70
2022/05/18 01:56:08;;;;;;;2.70;1.05;;;;;;;6.77;47.45;101717.41;1742720;82;22287;-70
2022/05/18 01:58:34;;;;;;;4.97;1.30;;;;;;;6.71;47.58;101716.55;1763902;81;21011;-70
2022/05/18 02:01:02;;;;;;;2.40;1.35;;;;;;;6.70;47.71;101715.70;1791095;79;21003;-70
2022/05/18 02:03:28;;;;;;;4.83;1.35;;;;;;;6.66;47.86;101716.02;1802236;79;21542;-70
2022/05/18 02:05:55;;;;;;;2.90;1.20;;;;;;;6.62;48.01;101715.88;1782458;75;95104;-70
2022/05/18 02:08:22;;;;;;;2.85;1.50;;;;;;;6.58;48.12;101718.41;1664378;84;21130;-70
2022/05/18 02:10:48;;;;;;;4.45;1.98;;;;;;;6.54;48.26;101727.88;1673785;85;21510;-70
2022/05/18 02:13:15;;;;;;;7.70;1.92;;;;;;;6.52;48.40;101731.14;1677583;84;21003;-70
2022/05/18 02:15:41;;;;;;;2.25;1.55;;;;;;;6.46;48.54;101732.06;1711966;83;21111;-70
2022/05/18 02:18:07;;;;;;;5.97;1.57;;;;;;;6.39;48.70;101729.02;1659258;85;21108;-70
2022/05/18 02:20:34;;;;;;;3.47;1.80;;;;;;;6.34;48.83;101732.45;1650655;86;21124;-70
2022/05/18 02:23:01;;;;;;;6.03;1.75;;;;;;;6.32;48.96;101727.77;1650312;87;20996;-70
2022/05/18 02:25:28;;;;;;;2.83;1.32;;;;;;;6.31;49.04;101734.48;1650159;87;21015;-70
2022/05/18 02:27:56;;;;;;;4.15;1.70;;;;;;;6.26;49.18;101735.30;1622749;87;21608;-70
2022/05/18 02:30:23;;;;;;;2.70;1.87;;;;;;;6.22;49.30;101734.67;1650334;87;21034;-70
2022/05/18 02:32:49;;;;;;;5.55;1.80;;;;;;;6.17;49.46;101735.94;1622494;88;21150;-70
2022/05/18 02:35:15;;;;;;;7.72;1.65;;;;;;;6.15;49.57;101735.22;1650309;87;21034;-70
2022/05/18 02:37:41;;;;;;;3.00;1.52;;;;;;;6.10;49.71;101736.01;1622379;87;20952;-70
2022/05/18 02:40:08;;;;;;;3.10;1.70;;;;;;;6.06;49.84;101740.67;1650505;87;21576;-70
2022/05/18 02:42:34;;;;;;;4.28;2.10;;;;;;;6.03;49.98;101739.56;1622444;88;21555;-70
2022/05/18 02:45:00;;;;;;;5.05;1.90;;;;;;;6.01;50.13;101738.84;1650462;87;21152;-70
2022/05/18 02:47:26;;;;;;;6.08;1.72;;;;;;;5.97;50.23;101746.16;1622529;87;21016;-70
2022/05/18 02:49:52;;;;;;;8.00;2.08;;;;;;;5.94;50.39;101747.70;1681097;85;20935;-70
2022/05/18 02:52:18;;;;;;;9.48;1.92;;;;;;;5.92;50.50;101744.77;1688522;83;21491;-70
2022/05/18 02:57:30;;;;;;;5.92;2.58;;;;;;;5.86;50.78;101746.52;1681885;84;21806;-70
2022/05/18 02:59:56;;;;;;;5.65;2.87;;;;;;;5.82;50.90;101755.59;1687168;84;21050;-70
2022/05/18 03:02:22;;;;;;;8.85;1.70;;;;;;;5.82;51.04;101746.33;1650727;87;21560;-70
2022/05/18 03:04:49;;;;;;;3.40;1.52;;;;;;;5.83;51.15;101755.50;1649602;86;21014;-70
2022/05/18 03:10:00;;;;;;;6.43;2.30;;;;;;;5.88;51.41;101750.75;1838583;77;28059;-70
2022/05/18 03:12:26;;;;;;;4.58;1.80;;;;;;;5.90;51.57;101756.80;1757363;81;21043;-70
2022/05/18 03:14:52;;;;;;;6.25;2.00;;;;;;;5.93;52.07;101761.03;1758995;81;20954;-70
2022/05/18 03:17:18;;;;;;;4.05;2.10;;;;;;;5.93;52.07;101761.03;1755511;81;21010;-70
2022/05/18 03:19:44;;;;;;;5.83;1.80;;;;;;;5.97;52.06;101764.69;1790444;80;20954;-70
2022/05/18 03:24:54;;;;;;;5.75;1.92;;;;;;;6.05;52.26;101765.48;1790360;80;21053;-70
2022/05/18 03:27:20;;;;;;;3.77;1.75;;;;;;;6.04;52.33;101771.72;1786887;80;21338;-70
2022/05/18 03:29:46;;;;;;;11.25;2.85;;;;;;;6.06;52.39;101771.12;1790428;80;21730;-70
2022/05/18 03:32:12;;;;;;;3.98;1.87;;;;;;;6.07;52.46;101772.83;1790128;80;20962;-70
2022/05/18 03:34:38;;;;;;;6.65;1.95;;;;;;;6.12;52.54;101781.78;1790316;80;20926;-70
2022/05/18 03:37:04;;;;;;;6.55;2.10;;;;;;;6.21;52.63;101785.09;1782782;79;21772;-70
2022/05/18 03:39:30;;;;;;;11.60;2.25;;;;;;;6.14;52.62;101776.74;1789935;80;21628;-70
2022/05/18 03:41:57;;;;;;;5.22;2.00;;;;;;;6.27;52.66;101789.95;1790337;79;21056;-70
2022/05/18 03:44:23;;;;;;;6.33;2.70;;;;;;;6.36;52.73;101795.48;1790309;80;21041;-70
2022/05/18 03:46:49;;;;;;;7.85;2.22;;;;;;;6.43;52.76;101796.73;1789306;79;20891;-70
2022/05/18 03:49:15;;;;;;;7.12;2.40;;;;;;;6.73;52.97;101798.12;1790517;80;21247;-70
2022/05/18 03:51:40;;;;;;;7.90;2.55;;;;;;;7.38;53.11;101794.13;1790400;79;22140;-70
2022/05/18 03:54:06;;;;;;;6.47;2.67;;;;;;;8.72;53.09;101799.59;1790106;79;21014;-72
2022/05/18 03:56:33;;;;;;;4.67;2.35;;;;;;;9.91;52.62;101799.34;1785152;79;21007;-72
2022/05/18 03:59:00;;;;;;;4.20;1.80;;;;;;;10.86;52.06;101802.06;1790390;79;21052;-71
2022/05/18 04:01:26;;;;;;;4.78;2.00;;;;;;;11.50;51.45;101801.89;1790286;79;20987;-71
2022/05/18 04:03:52;;;;;;;3.70;2.05;;;;;;;12.10;50.86;101802.55;1790306;79;21148;-71
2022/05/18 04:06:18;;;;;;;6.92;2.05;;;;;;;13.35;49.62;101787.97;1814795;78;20965;-71
2022/05/18 04:08:44;;;;;;;3.60;1.65;;;;;;;13.35;49.62;101787.97;1784234;79;20978;-71
2022/05/18 04:11:11;;;;;;;5.83;2.17;;;;;;;13.96;48.98;101807.22;1761466;81;21432;-72
2022/05/18 04:13:37;;;;;;;24.35;2.52;;;;;;;14.21;48.26;101810.91;1740952;80;21070;-72
2022/05/18 04:16:05;;;;;;;5.95;2.10;;;;;;;14.56;47.59;101801.88;1741866;81;21106;-72
2022/05/18 04:18:32;;;;;;;7.05;2.00;;;;;;;14.80;46.76;101800.63;1773790;80;21044;-72
2022/05/18 04:20:58;;;;;;;4.90;2.00;;;;;;;14.68;45.87;101793.86;1773686;80;21025;-72
2022/05/18 04:23:25;;;;;;;3.42;2.02;;;;;;;14.86;45.33;101797.28;1742497;81;21015;-72
2022/05/18 04:25:53;;;;;;;5.37;1.90;;;;;;;15.18;44.79;101799.20;1743117;82;21042;-72
2022/05/18 04:28:19;;;;;;;7.95;2.35;;;;;;;15.57;43.96;101808.34;1742664;81;21181;-72
2022/05/18 04:30:47;;;;;;;4.20;1.57;;;;;;;15.32;43.08;101807.45;1742685;81;21137;-72
2022/05/18 04:33:15;;;;;;;4.47;2.37;;;;;;;15.01;42.43;101803.70;1766678;81;21039;-72
2022/05/18 04:35:41;;;;;;;6.17;2.42;;;;;;;15.04;41.85;101805.22;1773573;81;21034;-72
2022/05/18 04:38:07;;;;;;;5.05;1.55;;;;;;;14.73;41.03;101807.65;1773634;80;21646;-72
2022/05/18 04:40:34;;;;;;;4.35;2.08;;;;;;;14.14;40.60;101806.67;1773506;81;21230;-72
2022/05/18 04:43:00;;;;;;;7.08;1.87;;;;;;;13.28;40.72;101817.71;1770516;80;21034;-72
2022/05/18 04:45:26;;;;;;;5.30;1.70;;;;;;;12.86;41.16;101817.89;1773372;80;21010;-72
2022/05/18 04:47:52;;;;;;;3.22;1.52;;;;;;;12.79;41.44;101812.80;1773477;80;21043;-72
2022/05/18 04:50:19;;;;;;;4.42;2.47;;;;;;;12.53;41.50;101817.50;1773514;81;21035;-72
2022/05/18 04:52:46;;;;;;;6.92;2.02;;;;;;;12.27;41.56;101815.16;1772326;80;21054;-72
2022/05/18 04:55:12;;;;;;;5.58;1.80;;;;;;;12.11;41.63;101822.08;1772426;81;21041;-72
2022/05/18 04:57:38;;;;;;;4.90;3.37;;;;;;;12.04;41.73;101821.82;1773461;80;20983;-72
2022/05/18 05:00:06;;;;;;;7.58;4.08;;;;;;;12.29;41.78;101817.66;1773535;80;21359;-72
2022/05/18 05:02:34;;;;;;;6.10;2.50;;;;;;;12.24;41.77;101827.98;1771024;80;21538;-72
2022/05/18 05:05:01;;;;;;;5.12;2.10;;;;;;;12.15;41.73;101827.00;1773422;80;21123;-72
2022/05/18 05:07:27;;;;;;;6.65;2.02;;;;;;;12.09;41.68;101830.27;1773200;80;21038;-73
2022/05/18 05:09:53;;;;;;;15.18;3.40;;;;;;;12.11;41.76;101822.93;1772964;79;21506;-72
2022/05/18 05:12:20;;;;;;;11.75;2.60;;;;;;;12.40;41.75;101829.03;1768937;81;21616;-72
2022/05/18 05:14:46;;;;;;;7.85;3.47;;;;;;;12.68;41.72;101831.73;1772458;80;21006;-72
2022/05/18 05:17:12;;;;;;;9.48;3.40;;;;;;;12.79;41.54;101831.53;1743252;81;21081;-73
2022/05/18 05:19:38;;;;;;;9.15;2.65;;;;;;;12.70;41.47;101829.77;1742479;82;20943;-72
2022/05/18 05:22:04;;;;;;;8.70;2.50;;;;;;;12.46;41.36;101838.30;1742722;82;21042;-72
2022/05/18 05:24:30;;;;;;;8.73;2.52;;;;;;;12.41;41.34;101840.59;1756629;81;20979;-72
2022/05/18 05:26:56;;;;;;;6.08;2.55;;;;;;;12.87;41.43;101839.67;1764900;80;20990;-72
2022/05/18 05:29:22;;;;;;;8.53;2.85;;;;;;;12.97;41.14;101837.77;1752344;81;21171;-72
2022/05/18 05:31:48;;;;;;;5.87;2.92;;;;;;;13.07;41.17;101841.23;1762811;80;20983;-72
2022/05/18 05:34:15;;;;;;;11.35;2.87;;;;;;;13.54;41.10;101839.73;1754556;81;20919;-72
2022/05/18 05:36:41;;;;;;;9.95;2.52;;;;;;;13.75;41.07;101833.55;1771990;80;21007;-73
2022/05/18 05:39:07;;;;;;;6.85;3.60;;;;;;;14.10;40.90;101838.84;1773539;80;20986;-73
2022/05/18 05:41:33;;;;;;;5.30;2.90;;;;;;;13.88;40.69;101832.14;1772824;81;21198;-73
2022/05/18 05:43:59;;;;;;;9.70;2.98;;;;;;;14.13;40.68;101833.65;1772050;81;21061;-73
2022/05/18 05:46:27;;;;;;;11.30;3.67;;;;;;;14.09;40.40;101844.34;1747634;80;21712;-73
2022/05/18 05:48:55;;;;;;;6.53;2.45;;;;;;;13.81;40.13;101843.64;1742507;81;21581;-72
2022/05/18 05:51:23;;;;;;;7.10;2.17;;;;;;;13.77;40.08;101844.95;1742639;81;21042;-73
2022/05/18 05:53:50;;;;;;;5.83;3.60;;;;;;;13.85;40.04;101837.82;1742449;82;21033;-73
2022/05/18 05:56:19;;;;;;;8.38;2.92;;;;;;;14.27;39.90;101835.25;1764972;81;21522;-73
2022/05/18 05:58:47;;;;;;;7.90;2.55;;;;;;;14.65;39.83;101843.86;1754669;81;21550;-73
2022/05/18 06:01:14;;;;;;;10.63;3.10;;;;;;;14.84;39.69;101844.96;1747506;81;20990;-72
2022/05/18 06:03:40;;;;;;;17.35;4.62;;;;;;;14.43;39.29;101850.63;1752809;81;21407;-73
2022/05/18 06:06:08;;;;;;;17.70;4.95;;;;;;;14.46;39.41;101848.46;1752410;81;21032;-73
2022/05/18 06:08:35;;;;;;;9.15;3.35;;;;;;;14.67;39.20;101849.93;1754868;81;21083;-73
2022/05/18 06:11:01;;;;;;;4.80;2.50;;;;;;;14.59;39.09;101849.88;1762013;81;21066;-71
2022/05/18 06:13:29;;;;;;;9.28;2.75;;;;;;;14.69;39.02;101847.91;1756022;81;21415;-72
2022/05/18 06:15:55;;;;;;;7.22;2.47;;;;;;;14.52;38.93;101854.20;1754327;81;21550;-72
2022/05/18 06:18:21;;;;;;;7.97;3.35;;;;;;;14.70;38.89;101854.98;1754236;80;21668;-72
2022/05/18 06:20:48;;;;;;;5.80;2.00;;;;;;;14.65;38.70;101852.77;1750790;81;21667;-72
2022/05/18 06:23:14;;;;;;;9.58;1.95;;;;;;;14.80;38.72;101853.00;1746705;81;20999;-72
2022/05/18 06:25:40;;;;;;;7.47;2.35;;;;;;;15.10;38.64;101855.61;1765852;81;21795;-72
2022/05/18 06:28:07;;;;;;;7.15;2.00;;;;;;;15.28;38.47;101862.55;1754351;81;21009;-72
2022/05/18 06:30:33;;;;;;;5.00;2.08;;;;;;;15.51;38.47;101866.84;1753022;81;21140;-72
2022/05/18 06:33:01;;;;;;;10.28;2.77;;;;;;;15.37;38.19;101868.30;1754234;81;21068;-72
2022/05/18 06:35:28;;;;;;;6.00;2.20;;;;;;;15.41;38.29;101861.56;1753388;81;21002;-72
2022/05/18 06:37:55;;;;;;;6.00;2.12;;;;;;;15.63;38.21;101870.02;1754241;81;21639;-72
2022/05/18 06:41:21;;;;;;;7.22;2.20;;;;;;;15.52;38.01;101867.16;1753939;80;21061;-72
2022/05/18 06:42:49;;;;;;;4.33;2.27;;;;;;;15.65;37.97;101876.09;1753567;81;21789;-72
2022/05/18 06:45:15;;;;;;;16.35;2.90;;;;;;;15.53;37.91;101864.81;1754783;81;20967;-72
2022/05/18 06:47:43;;;;;;;8.50;2.30;;;;;;;15.56;37.83;101874.38;1753605;80;21748;-73
2022/05/18 06:50:09;;;;;;;7.60;2.83;;;;;;;16.02;37.92;101869.70;1752990;81;21668;-72
2022/05/18 06:52:36;;;;;;;5.08;1.82;;;;;;;16.02;37.70;101875.58;1755333;80;21074;-72
2022/05/18 06:55:03;;;;;;;4.72;2.10;;;;;;;15.72;37.53;101874.42;1756656;81;21073;-72
2022/05/18 06:57:29;;;;;;;2.65;1.72;;;;;;;16.03;37.59;101882.66;1753546;81;21491;-72
2022/05/18 06:59:57;;;;;;;10.78;2.40;;;;;;;16.36;37.50;101880.27;1753405;81;21042;-72
2022/05/18 07:02:23;;;;;;;6.10;2.45;;;;;;;16.36;37.21;101888.34;1754549;81;21014;-72
2022/05/18 07:04:49;;;;;;;5.87;1.98;;;;;;;16.47;37.21;101875.84;1754712;80;21101;-72
2022/05/18 07:07:15;;;;;;;6.45;1.85;;;;;;;16.55;37.00;101876.33;1752683;81;22443;-72
2022/05/18 07:09:42;;;;;;;9.88;2.27;;;;;;;16.33;36.67;101885.47;1763291;78;21172;-72
2022/05/18 07:12:09;;;;;;;4.65;2.02;;;;;;;16.05;36.65;101880.12;1782294;78;21023;-72
2022/05/18 07:14:35;;;;;;;10.23;3.55;;;;;;;16.23;36.68;101881.28;1796476;78;21479;-72
2022/05/18 07:17:01;;;;;;;16.48;6.25;;;;;;;16.65;36.66;101882.39;1781199;79;21617;-72
2022/05/18 07:19:30;;;;;;;8.73;2.08;;;;;;;16.66;36.45;101884.08;1811985;78;21734;-72
2022/05/18 07:21:55;;;;;;;4.00;2.17;;;;;;;16.46;36.31;101875.03;1775289;78;21507;-72
2022/05/18 07:24:21;;;;;;;13.30;8.28;;;;;;;16.06;36.12;101880.46;1795484;77;20881;-71
2022/05/18 07:26:47;;;;;;;7.67;2.50;;;;;;;16.05;36.18;101892.23;1777820;79;20899;-72
2022/05/18 07:29:13;;;;;;;7.35;2.65;;;;;;;16.31;36.22;101879.92;1778255;79;21016;-71
2022/05/18 07:34:24;;;;;;;6.55;2.35;;;;;;;16.85;36.14;101885.03;1805322;78;20998;-72
2022/05/18 07:36:51;;;;;;;5.87;2.67;;;;;;;16.83;35.98;101880.31;1759411;81;20964;-72
2022/05/18 07:39:17;;;;;;;4.65;1.92;;;;;;;16.69;35.96;101884.58;1792446;80;21049;-72
2022/05/18 07:41:44;;;;;;;5.08;1.72;;;;;;;17.02;35.95;101881.25;1760693;81;21084;-72
2022/05/18 07:44:11;;;;;;;3.95;1.67;;;;;;;17.38;35.92;101882.92;1779834;80;22322;-72
2022/05/18 07:46:37;;;;;;;5.62;2.22;;;;;;;17.67;35.81;101891.67;1779557;80;20988;-72
2022/05/18 07:49:04;;;;;;;7.53;1.72;;;;;;;17.51;35.58;101888.55;1792394;80;20970;-72
2022/05/18 07:51:30;;;;;;;8.60;1.70;;;;;;;17.29;35.51;101884.81;1759615;81;21587;-72
2022/05/18 07:53:56;;;;;;;7.28;1.77;;;;;;;17.17;35.25;101884.86;1792515;80;20998;-72
2022/05/18 07:56:22;;;;;;;3.02;1.60;;;;;;;17.42;35.18;101878.81;1761312;81;21090;-72
2022/05/18 07:58:48;;;;;;;10.18;2.10;;;;;;;17.74;35.12;101879.13;1784991;80;20885;-72
2022/05/18 08:01:14;;;;;;;6.95;1.98;;;;;;;18.07;35.09;101884.60;1765880;81;22162;-72
2022/05/18 08:03:40;;;;;;;5.15;1.80;;;;;;;18.08;34.93;101878.19;1765126;81;21014;-73
2022/05/18 08:06:06;;;;;;;10.25;2.30;;;;;;;18.22;34.83;101890.05;1792558;80;21061;-72
2022/05/18 08:08:32;;;;;;;5.78;2.00;;;;;;;18.19;34.56;101876.38;1759394;81;21362;-72
2022/05/18 08:16:30;;;;;;;3.30;1.30;;;;;;;18.72;34.13;101891.55;1782893;80;20992;-72
2022/05/18 08:18:55;;;;;;;4.25;1.47;;;;;;;18.82;34.00;101890.74;1774193;80;21085;-72
2022/05/18 08:21:21;;;;;;;7.75;1.50;;;;;;;18.96;33.90;101882.32;1773521;80;22815;-73
2022/05/18 08:23:47;;;;;;;5.42;1.40;;;;;;;19.00;33.69;101879.54;1796303;79;21030;-72
2022/05/18 08:26:13;;;;;;;7.28;2.12;;;;;;;18.87;33.44;101884.28;1763349;81;20890;-72
2022/05/18 08:28:40;;;;;;;6.83;1.50;;;;;;;19.06;33.33;101880.16;1796377;79;20873;-72
2022/05/18 08:31:06;;;;;;;3.27;1.67;;;;;;;19.15;32.96;101881.71;1764890;81;21001;-73
2022/05/18 08:33:33;;;;;;;4.30;1.40;;;;;;;18.97;32.65;101886.68;1783251;80;21163;-73
2022/05/18 08:36:04;;;;;;;2.30;1.50;;;;;;;18.81;32.48;101876.92;1774197;80;21643;-73
2022/05/18 08:38:30;;;;;;;3.98;1.20;;;;;;;18.96;32.30;101887.73;1773998;80;21022;-72
2022/05/18 08:41:20;;;;;;;2.17;1.00;;;;;;;18.94;31.96;101885.70;1796368;79;20946;-73
2022/05/18 08:43:50;;;;;;;2.83;1.30;;;;;;;19.09;31.85;101891.95;1743741;81;21008;-73
2022/05/18 08:46:34;;;;;;;;;;;;;;;19.13;31.66;101886.48;1799090;79;21321;-72
2022/05/18 08:49:39;;;;;;;7.85;1.20;;;;;;;19.04;31.38;101888.95;1796221;79;20140;-73
2022/05/18 08:52:54;;;;;;;4.12;1.07;;;;;;;18.47;30.88;101886.08;1764794;81;21057;-73
2022/05/18 08:55:50;;;;;;;10.43;1.52;;;;;;;18.38;30.78;101892.06;1750151;80;21031;-72
2022/05/18 08:58:30;;;;;;;7.28;1.37;;;;;;;18.52;30.76;101892.28;1777167;80;21101;-72
2022/05/18 09:01:18;;;;;;;4.95;1.15;;;;;;;18.81;30.71;101880.14;1777954;80;21331;-72
2022/05/18 09:03:57;;;;;;;6.37;1.30;;;;;;;19.02;30.61;101884.77;1777745;80;21030;-72
2022/05/18 09:10:12;;;;;;;4.62;1.17;;;;;;;18.69;30.31;101881.63;1667947;81;102174;-72
2022/05/18 09:11:22;;;;;;;6.17;1.17;;;;;;;18.60;30.21;101876.84;1660653;84;21112;-72
2022/05/18 09:13:48;;;;;;;5.72;1.40;;;;;;;18.56;29.98;101871.98;1678560;83;21100;-72
2022/05/18 09:16:26;;;;;;;4.55;1.30;;;;;;;18.78;29.86;101876.46;1663552;84;21601;-72
2022/05/18 09:19:15;;;;;;;2.22;1.30;;;;;;;19.03;29.71;101876.99;1646629;85;21043;-72
2022/05/18 09:22:13;;;;;;;2.35;1.20;;;;;;;19.15;29.60;101879.01;1698091;83;21043;-72
2022/05/18 09:24:55;;;;;;;6.22;1.37;;;;;;;18.90;29.24;101873.59;1706673;83;21011;-72
2022/05/18 09:28:00;;;;;;;2.45;1.20;;;;;;;18.96;29.20;101878.27;1707787;83;21902;-72
2022/05/18 09:30:50;;;;;;;2.50;1.17;;;;;;;19.12;29.03;101876.69;1699983;82;21507;-72
2022/05/18 09:33:55;;;;;;;5.55;1.20;;;;;;;19.22;28.82;101866.41;1693109;82;21120;-72
2022/05/18 09:36:56;;;;;;;2.70;1.00;;;;;;;19.13;28.63;101870.26;1692808;83;21445;-72
2022/05/18 09:39:26;;;;;;;3.50;1.20;;;;;;;19.37;28.68;101872.62;1673361;83;21096;-72
2022/05/18 09:41:57;;;;;;;2.90;1.10;;;;;;;19.50;28.39;101865.69;1675879;83;21246;-72
2022/05/18 09:44:55;;;;;;;2.50;1.10;;;;;;;19.70;28.32;101874.86;1677728;82;21021;-72
2022/05/18 09:47:23;;;;;;;4.03;1.15;;;;;;;19.60;28.12;101867.59;1683296;83;21076;-72
2022/05/18 09:49:53;;;;;;;2.47;1.10;;;;;;;19.48;28.02;101863.19;1686696;83;21052;-72
2022/05/18 09:52:24;;;;;;;2.70;1.15;;;;;;;19.40;27.85;101874.94;1647404;85;21034;-72
2022/05/18 09:54:55;;;;;;;1.80;0.98;;;;;;;19.08;27.67;101865.92;1669872;83;21926;-72
2022/05/18 09:57:38;;;;;;;5.62;0.80;;;;;;;19.02;27.57;101863.98;1673190;83;21063;-72
2022/05/18 10:00:12;;;;;;;2.20;1.07;;;;;;;19.35;27.47;101860.31;1676421;82;21079;-72
2022/05/18 10:08:23;;;;;;;3.85;0.90;;;;;;;19.91;27.23;101858.61;1655768;83;21889;-72
2022/05/18 10:11:05;;;;;;;4.05;0.88;;;;;;;20.01;27.09;101855.04;1672866;84;21535;-73
2022/05/18 10:13:35;;;;;;;1.40;0.90;;;;;;;20.19;26.95;101862.17;1669783;84;21389;-72
2022/05/18 10:16:08;;;;;;;;;;;;;;;19.91;26.47;101858.61;1671171;84;21086;-72
2022/05/18 10:18:42;;;;;;;4.17;1.00;;;;;;;19.94;26.32;101852.28;1673379;84;20484;-72
2022/05/18 10:21:20;;;;;;;3.05;0.88;;;;;;;20.03;26.17;101854.31;1652193;84;21204;-72
2022/05/18 10:24:06;;;;;;;4.33;0.80;;;;;;;20.26;26.00;101844.09;1681886;83;21094;-72
2022/05/18 10:26:40;;;;;;;7.25;1.30;;;;;;;20.49;25.82;101838.41;1642826;85;21610;-72
2022/05/18 10:29:16;;;;;;;1.62;1.00;;;;;;;20.27;25.62;101827.28;1640725;85;21494;-72
2022/05/18 10:31:46;;;;;;;5.65;1.10;;;;;;;20.39;25.48;101830.64;1656016;84;21095;-72
2022/05/18 10:34:29;;;;;;;4.12;0.98;;;;;;;20.57;25.26;101827.41;1681982;84;21136;-73
2022/05/18 10:37:01;;;;;;;3.08;0.60;;;;;;;20.67;25.18;101822.97;1673706;84;21591;-72
2022/05/18 10:39:37;;;;;;;0.90;0.80;;;;;;;20.75;25.08;101825.52;1640048;85;21537;-72
2022/05/18 10:42:30;;;;;;;4.25;1.10;;;;;;;20.78;24.94;101830.02;1633761;85;21044;-72
2022/05/18 10:45:00;;;;;;;2.02;0.90;;;;;;;20.85;24.81;101817.33;1646984;85;21098;-72
2022/05/18 10:47:29;;;;;;;;;;;;;;;20.63;24.31;101813.56;1611289;87;21302;-72
2022/05/18 10:50:23;;;;;;;7.40;1.73;;;;;;;20.48;23.97;101816.94;1646711;85;20193;-72
2022/05/18 10:52:48;;;;;;;2.30;1.15;;;;;;;20.19;23.70;101814.76;1629894;85;21037;-72
2022/05/18 10:55:17;;;;;;;2.45;0.72;;;;;;;20.17;23.60;101806.48;1629054;85;21018;-72
2022/05/18 10:57:54;;;;;;;1.70;0.95;;;;;;;20.06;23.39;101809.23;1648712;85;21112;-71
2022/05/18 11:00:21;;;;;;;5.70;1.15;;;;;;;20.05;23.48;101807.58;1644083;85;21269;-70
2022/05/18 11:03:40;;;;;;;2.47;0.78;;;;;;;19.95;23.25;101798.42;1677783;84;21022;-71
2022/05/18 11:06:28;;;;;;;6.58;0.90;;;;;;;19.94;23.25;101801.34;1649308;86;21146;-71
2022/05/18 11:09:02;;;;;;;2.63;0.93;;;;;;;20.03;23.27;101796.08;1655228;85;21542;-71
2022/05/18 11:11:45;;;;;;;3.20;0.75;;;;;;;20.29;23.26;101800.36;1652791;85;21035;-71
2022/05/18 11:14:22;;;;;;;1.02;0.70;;;;;;;20.44;23.24;101783.98;1655670;85;21847;-71
2022/05/18 11:17:06;;;;;;;3.15;0.70;;;;;;;20.73;23.26;101789.62;1637537;85;21073;-71
2022/05/18 11:19:46;;;;;;;3.45;0.88;;;;;;;20.89;23.18;101783.86;1643374;85;21039;-71
2022/05/18 11:22:42;;;;;;;1.80;0.72;;;;;;;20.87;23.09;101776.42;1667240;84;21050;-71
2022/05/18 11:25:53;;;;;;;8.00;0.90;;;;;;;20.68;22.87;101775.84;1679430;84;21034;-71
2022/05/18 11:28:56;;;;;;;2.15;1.07;;;;;;;20.50;22.66;101771.48;1668441;84;21521;-71
2022/05/18 11:31:36;;;;;;;2.67;0.78;;;;;;;20.59;22.40;101771.63;1673959;84;21595;-71
2022/05/18 11:34:44;;;;;;;2.67;0.60;;;;;;;20.48;22.13;101766.25;1667233;84;21051;-71
2022/05/18 11:37:43;;;;;;;1.32;0.70;;;;;;;20.36;22.08;101757.88;1667923;84;21062;-71
2022/05/18 11:41:00;;;;;;;7.47;1.30;;;;;;;20.31;21.89;101748.66;1666363;83;21512;-71
2022/05/18 11:44:05;;;;;;;1.40;0.70;;;;;;;20.51;22.01;101743.36;1673235;84;21761;-72
2022/05/18 11:46:46;;;;;;;1.42;0.80;;;;;;;20.84;21.92;101744.29;1667720;83;21049;-71
2022/05/18 11:49:29;;;;;;;0.70;0.40;;;;;;;20.95;21.70;101747.77;1678653;83;21562;-71
2022/05/18 11:52:20;;;;;;;3.02;0.80;;;;;;;20.96;21.44;101750.80;1633650;84;21080;-72
2022/05/18 11:55:11;;;;;;;1.15;0.55;;;;;;;21.00;21.29;101749.36;1670130;84;21110;-71
2022/05/18 11:58:10;;;;;;;3.33;1.00;;;;;;;21.03;21.03;101742.16;1669512;84;21054;-71
2022/05/18 12:12:10;;;;;;;7.50;0.90;;;;;;;21.06;20.09;101730.05;1801301;78;22759;-71
2022/05/18 12:15:27;;;;;;;5.15;0.60;;;;;;;21.11;20.01;101739.81;1754609;80;21543;-71
2022/05/18 12:18:04;;;;;;;1.98;0.60;;;;;;;20.93;19.70;101741.73;1764874;80;21201;-71
2022/05/18 12:20:41;;;;;;;1.72;0.55;;;;;;;20.81;19.67;101731.14;1755107;80;20933;-71
2022/05/18 12:23:11;;;;;;;8.40;1.10;;;;;;;20.84;19.62;101733.45;1753960;80;21017;-71
2022/05/18 12:25:37;;;;;;;2.70;0.60;;;;;;;20.94;19.57;101734.72;1771701;80;21013;-71